Details for Norwegian Air Shuttle at GCTS




Go Back


Latest METAR
Local Time

GCTS 232330Z 30003KT 9999 FEW040 14/11 Q1002 NOSIG

23/02/2018, 23:52:04

Description
Results
Norwegian Air Shuttle Logo
Number of Pilots based at GCTS
0 Pilots Based here
Number of Norwegian Air Shuttle Flights Departed from GCTS
0 Flights Departed
Number of Norwegian Air Shuttle Flights Arrived at GCTS
0 Flights Arrived
Number of Norwegian Air Shuttle Schedules Departing from GCTS
3 Schedules
Number of Norwegian Air Shuttle Schedules Arriving at GCTS
2 Schedules
Number of Norwegian Air Shuttle Schedules Departing from GCTS availible today
0 Schedules Today
Number of Norwegian Air Shuttle Schedules Arriving at GCTS availible today
0 Schedules Today
Average Landing Rate at GCTS
-228 fpm
Norwegian Air Shuttle Average Landing Rate at GCTS
0 fpm
Total Fuel Purchased at GCTS by Norwegian Air Shuttle
0.00 kgs / 0.00 lbs

Pilots Based at GCTS


Pilot ID
Pilot Name
Pilot Rank
No. of Flights
No. of Flying Hours
There are no pilots assigned to this hub!   Will you be the first?
Content